createdAt,value
2023-03-13T00:00:32.967Z,0
2023-03-13T00:01:32.988Z,0
2023-03-13T00:02:33.022Z,0
2023-03-13T00:03:32.979Z,0
2023-03-13T00:04:33.071Z,0
2023-03-13T00:05:32.976Z,0
2023-03-13T00:06:33.006Z,0
2023-03-13T00:07:32.980Z,0
2023-03-13T00:08:32.990Z,0
2023-03-13T00:09:33.046Z,0
2023-03-13T00:10:32.978Z,0
2023-03-13T00:11:32.964Z,0
2023-03-13T00:12:32.983Z,0
2023-03-13T00:13:32.993Z,0
2023-03-13T00:14:33.001Z,0
2023-03-13T00:15:32.971Z,0
2023-03-13T00:16:33.026Z,0
2023-03-13T00:17:33.065Z,0
2023-03-13T00:18:32.981Z,0
2023-03-13T00:19:32.986Z,0
2023-03-13T00:20:33.021Z,0
2023-03-13T00:21:32.997Z,0
2023-03-13T00:22:32.994Z,0
2023-03-13T00:23:32.985Z,0
2023-03-13T00:24:32.992Z,0
2023-03-13T00:25:33.046Z,0
2023-03-13T00:26:33.002Z,0
2023-03-13T00:27:32.985Z,0
2023-03-13T00:28:33.001Z,0
2023-03-13T00:29:33.004Z,0
2023-03-13T00:30:33.099Z,0
2023-03-13T00:31:33.097Z,0
2023-03-13T00:32:33.095Z,0
2023-03-13T00:33:33.011Z,0
2023-03-13T00:34:33.012Z,0
2023-03-13T00:35:33.048Z,0
2023-03-13T00:36:33.102Z,0
2023-03-13T00:37:33.007Z,0
2023-03-13T00:38:33.011Z,0
2023-03-13T00:39:33.013Z,0
2023-03-13T00:40:33.023Z,0
2023-03-13T00:41:33.004Z,0
2023-03-13T00:42:33.011Z,0
2023-03-13T00:43:33.012Z,0
2023-03-13T00:44:33.020Z,0
2023-03-13T00:45:33.027Z,0
2023-03-13T00:46:33.129Z,0
2023-03-13T00:47:33.019Z,0
2023-03-13T00:48:33.028Z,0
2023-03-13T00:49:33.032Z,0
2023-03-13T00:50:33.024Z,0
2023-03-13T00:51:33.026Z,0
2023-03-13T00:52:33.028Z,0
2023-03-13T00:53:33.033Z,0
2023-03-13T00:54:33.032Z,0
2023-03-13T00:55:33.026Z,0
2023-03-13T00:56:33.035Z,6.9
2023-03-13T00:57:33.029Z,0
2023-03-13T00:58:33.039Z,3.3000000000000003
2023-03-13T00:59:33.040Z,0
2023-03-13T01:00:33.041Z,0
2023-03-13T01:01:33.040Z,2
2023-03-13T01:02:33.189Z,0
2023-03-13T01:03:33.093Z,0
2023-03-13T01:04:33.045Z,2.9000000000000004
2023-03-13T01:05:33.048Z,0
2023-03-13T01:06:33.067Z,0
2023-03-13T01:07:33.058Z,0
2023-03-13T01:08:33.071Z,0
2023-03-13T01:09:33.074Z,0
2023-03-13T01:10:33.057Z,0
2023-03-13T01:11:33.086Z,0
2023-03-13T01:12:33.065Z,0
2023-03-13T01:13:33.074Z,3.3000000000000003
2023-03-13T01:14:33.095Z,0
2023-03-13T01:15:33.118Z,0
2023-03-13T01:16:33.087Z,0
2023-03-13T01:17:33.074Z,0
2023-03-13T01:18:33.100Z,0
2023-03-13T01:19:33.076Z,0
2023-03-13T01:20:33.087Z,0
2023-03-13T01:21:33.095Z,0
2023-03-13T01:22:33.076Z,0
2023-03-13T01:23:33.086Z,0
2023-03-13T01:24:33.097Z,0
2023-03-13T01:25:33.077Z,0
2023-03-13T01:26:33.101Z,0
2023-03-13T01:27:33.091Z,0
2023-03-13T01:28:33.069Z,0
2023-03-13T01:29:33.091Z,0
2023-03-13T01:30:33.119Z,0
2023-03-13T01:31:33.141Z,0
2023-03-13T01:32:33.137Z,0
2023-03-13T01:33:33.123Z,0
2023-03-13T01:34:33.115Z,0
2023-03-13T01:35:33.174Z,0
2023-03-13T01:36:33.111Z,0
2023-03-13T01:37:33.103Z,0
2023-03-13T01:38:33.102Z,0
2023-03-13T01:39:33.114Z,0
2023-03-13T01:40:33.110Z,0
2023-03-13T01:41:33.113Z,0
2023-03-13T01:42:33.113Z,0
2023-03-13T01:43:33.110Z,0
2023-03-13T01:44:33.119Z,0
2023-03-13T01:45:33.111Z,0
2023-03-13T01:46:33.204Z,0
2023-03-13T01:47:33.122Z,0
2023-03-13T01:48:33.127Z,0
2023-03-13T01:49:33.135Z,0
2023-03-13T01:50:33.145Z,0
2023-03-13T01:51:33.118Z,3.8000000000000003
2023-03-13T01:52:33.126Z,2.4000000000000004
2023-03-13T01:53:33.127Z,0
2023-03-13T01:54:33.124Z,0
2023-03-13T01:55:33.131Z,0
2023-03-13T01:56:33.132Z,0
2023-03-13T01:57:33.149Z,0
2023-03-13T01:58:33.129Z,0
2023-03-13T01:59:33.132Z,0
2023-03-13T02:00:33.146Z,0
2023-03-13T02:01:34.261Z,0
2023-03-13T02:02:33.179Z,0
2023-03-13T02:03:33.129Z,0
2023-03-13T02:04:33.145Z,0
2023-03-13T02:05:33.134Z,0
2023-03-13T02:06:33.183Z,0
2023-03-13T02:07:33.149Z,0
2023-03-13T02:08:33.163Z,0
2023-03-13T02:09:33.164Z,0
2023-03-13T02:10:33.161Z,0
2023-03-13T02:11:33.146Z,0
2023-03-13T02:12:33.153Z,0
2023-03-13T02:13:33.142Z,0
2023-03-13T02:14:33.150Z,0
2023-03-13T02:15:33.179Z,0
2023-03-13T02:16:33.161Z,0
2023-03-13T02:17:33.191Z,2.5
2023-03-13T02:18:33.156Z,2.7
2023-03-13T02:19:33.165Z,6.2
2023-03-13T02:20:33.169Z,8.4
2023-03-13T02:21:33.181Z,5.300000000000001
2023-03-13T02:22:33.194Z,0
2023-03-13T02:23:33.216Z,3
2023-03-13T02:24:33.174Z,0
2023-03-13T02:25:33.151Z,0
2023-03-13T02:26:33.171Z,3.5
2023-03-13T02:27:33.212Z,2.1
2023-03-13T02:28:33.185Z,5.300000000000001
2023-03-13T02:29:33.266Z,4
2023-03-13T02:30:33.173Z,2.6
2023-03-13T02:31:33.266Z,0
2023-03-13T02:32:33.253Z,0
2023-03-13T02:33:33.178Z,1.1
2023-03-13T02:34:33.171Z,0
2023-03-13T02:35:33.269Z,0
2023-03-13T02:36:33.191Z,6.2
2023-03-13T02:37:33.189Z,2.7
2023-03-13T02:38:33.219Z,4.3
2023-03-13T02:39:33.182Z,2.9000000000000004
2023-03-13T02:40:33.197Z,4.6000000000000005
2023-03-13T02:41:33.192Z,0
2023-03-13T02:42:33.176Z,0
2023-03-13T02:43:33.193Z,0
2023-03-13T02:44:33.207Z,0
2023-03-13T02:45:33.190Z,0
2023-03-13T02:46:33.232Z,0
2023-03-13T02:47:33.207Z,0
2023-03-13T02:48:33.228Z,0
2023-03-13T02:49:33.211Z,0
2023-03-13T02:50:33.205Z,0
2023-03-13T02:51:33.195Z,0
2023-03-13T02:52:33.207Z,0
2023-03-13T02:53:33.206Z,0
2023-03-13T02:54:33.242Z,0
2023-03-13T02:55:33.213Z,0
2023-03-13T02:56:33.199Z,0
2023-03-13T02:57:33.202Z,0
2023-03-13T02:58:33.663Z,0
2023-03-13T02:59:33.208Z,0
2023-03-13T03:00:33.248Z,0
2023-03-13T03:01:33.207Z,0
2023-03-13T03:02:33.252Z,0
2023-03-13T03:03:33.233Z,0
2023-03-13T03:04:33.208Z,0
2023-03-13T03:05:33.228Z,9.200000000000001
2023-03-13T03:06:33.202Z,6.4
2023-03-13T03:07:33.201Z,5.6000000000000005
2023-03-13T03:08:33.204Z,6.800000000000001
2023-03-13T03:09:33.209Z,3.9000000000000004
2023-03-13T03:10:33.251Z,4.5
2023-03-13T03:11:33.218Z,5.5
2023-03-13T03:12:33.211Z,0
2023-03-13T03:13:33.225Z,6.7
2023-03-13T03:14:33.221Z,4.2
2023-03-13T03:15:33.241Z,6.300000000000001
2023-03-13T03:16:33.280Z,3.5
2023-03-13T03:17:33.220Z,4.4
2023-03-13T03:18:34.648Z,2.4000000000000004
2023-03-13T03:19:33.220Z,6
2023-03-13T03:20:33.224Z,5
2023-03-13T03:21:33.218Z,2.5
2023-03-13T03:22:33.221Z,2.6
2023-03-13T03:23:33.224Z,0
2023-03-13T03:24:33.216Z,0
2023-03-13T03:25:33.220Z,0
2023-03-13T03:26:33.248Z,0
2023-03-13T03:27:33.216Z,5.6000000000000005
2023-03-13T03:28:33.234Z,3.7
2023-03-13T03:29:33.234Z,2
2023-03-13T03:30:33.228Z,5.5
2023-03-13T03:31:33.284Z,4.1000000000000005
2023-03-13T03:32:33.296Z,3.7
2023-03-13T03:33:33.259Z,5.800000000000001
2023-03-13T03:34:33.239Z,5.7
2023-03-13T03:35:33.246Z,3.6
2023-03-13T03:36:33.250Z,0
2023-03-13T03:37:33.240Z,0
2023-03-13T03:38:33.231Z,0
2023-03-13T03:39:33.232Z,0
2023-03-13T03:40:33.226Z,0
2023-03-13T03:41:33.236Z,5.300000000000001
2023-03-13T03:42:33.254Z,5.7
2023-03-13T03:43:33.238Z,3.3000000000000003
2023-03-13T03:44:33.241Z,0
2023-03-13T03:45:33.264Z,0
2023-03-13T03:46:33.241Z,0
2023-03-13T03:47:33.245Z,0
2023-03-13T03:48:33.248Z,0
2023-03-13T03:49:33.238Z,0
2023-03-13T03:50:33.271Z,7.5
2023-03-13T03:51:33.260Z,1.8
2023-03-13T03:52:33.243Z,0
2023-03-13T03:53:33.251Z,0
2023-03-13T03:54:33.242Z,0
2023-03-13T03:55:35.089Z,1
2023-03-13T03:56:33.248Z,0
2023-03-13T03:57:33.248Z,0
2023-03-13T03:58:33.279Z,0
2023-03-13T03:59:33.240Z,0
2023-03-13T04:00:33.249Z,0
2023-03-13T04:01:33.269Z,0
2023-03-13T04:02:33.314Z,0
2023-03-13T04:03:33.290Z,0
2023-03-13T04:04:33.255Z,0
2023-03-13T04:05:33.253Z,0
2023-03-13T04:06:33.269Z,0
2023-03-13T04:07:33.262Z,0
2023-03-13T04:08:33.264Z,0
2023-03-13T04:09:33.257Z,0
2023-03-13T04:10:33.266Z,0
2023-03-13T04:11:33.255Z,0
2023-03-13T04:12:33.268Z,0
2023-03-13T04:13:33.295Z,0
2023-03-13T04:14:33.281Z,0
2023-03-13T04:15:33.257Z,0
2023-03-13T04:16:33.409Z,0
2023-03-13T04:17:33.264Z,0
2023-03-13T04:18:33.266Z,0
2023-03-13T04:19:33.271Z,0
2023-03-13T04:20:33.268Z,0
2023-03-13T04:21:33.267Z,0
2023-03-13T04:22:33.272Z,0
2023-03-13T04:23:33.258Z,0
2023-03-13T04:24:33.262Z,0
2023-03-13T04:25:33.271Z,0
2023-03-13T04:26:33.264Z,0
2023-03-13T04:27:33.276Z,0
2023-03-13T04:28:33.262Z,0
2023-03-13T04:29:33.267Z,0
2023-03-13T04:30:33.337Z,0
2023-03-13T04:31:33.264Z,0
2023-03-13T04:32:33.342Z,0
2023-03-13T04:33:33.267Z,0
2023-03-13T04:34:33.282Z,0
2023-03-13T04:35:33.416Z,0
2023-03-13T04:36:33.288Z,0
2023-03-13T04:37:33.262Z,0
2023-03-13T04:38:33.266Z,0
2023-03-13T04:39:33.320Z,0
2023-03-13T04:40:33.264Z,0
2023-03-13T04:41:33.270Z,0
2023-03-13T04:42:33.270Z,0
2023-03-13T04:43:33.263Z,0
2023-03-13T04:44:33.283Z,0
2023-03-13T04:45:33.276Z,0
2023-03-13T04:46:33.356Z,0
2023-03-13T04:47:33.278Z,0
2023-03-13T04:48:33.284Z,0
2023-03-13T04:49:33.286Z,0
2023-03-13T04:50:33.282Z,0
2023-03-13T04:51:33.289Z,0
2023-03-13T04:52:33.294Z,0
2023-03-13T04:53:33.308Z,0
2023-03-13T04:54:33.300Z,0
2023-03-13T04:55:33.285Z,0
2023-03-13T04:56:43.049Z,0
2023-03-13T04:57:33.284Z,0
2023-03-13T04:58:33.303Z,0
2023-03-13T04:59:33.289Z,0
2023-03-13T05:00:33.291Z,0
2023-03-13T05:01:33.319Z,0
2023-03-13T05:02:33.311Z,0
2023-03-13T05:03:33.300Z,0
2023-03-13T05:04:33.363Z,0
2023-03-13T05:05:33.371Z,0
2023-03-13T05:06:33.311Z,0
2023-03-13T05:07:33.309Z,0
2023-03-13T05:08:33.306Z,0
2023-03-13T05:09:33.328Z,0
2023-03-13T05:10:33.322Z,0
2023-03-13T05:11:33.316Z,0
2023-03-13T05:12:33.310Z,0
2023-03-13T05:13:33.323Z,0
2023-03-13T05:14:33.331Z,0
2023-03-13T05:15:33.381Z,0
2023-03-13T05:16:33.312Z,0
2023-03-13T05:17:33.324Z,0
2023-03-13T05:18:33.432Z,0
2023-03-13T05:19:33.326Z,0
2023-03-13T05:20:33.324Z,0
2023-03-13T05:21:33.317Z,0
2023-03-13T05:22:33.316Z,0
2023-03-13T05:23:33.323Z,0
2023-03-13T05:24:33.327Z,0
2023-03-13T05:25:33.350Z,0
2023-03-13T05:26:33.328Z,0
2023-03-13T05:27:33.355Z,0
2023-03-13T05:28:33.326Z,0
2023-03-13T05:29:33.333Z,0
2023-03-13T05:30:33.335Z,0
2023-03-13T05:31:33.404Z,0
2023-03-13T05:32:33.386Z,0
2023-03-13T05:33:33.338Z,0
2023-03-13T05:34:33.367Z,0
2023-03-13T05:35:33.368Z,0
2023-03-13T05:36:33.345Z,0
2023-03-13T05:37:33.347Z,0
2023-03-13T05:38:33.342Z,0
2023-03-13T05:39:33.345Z,0
2023-03-13T05:40:33.343Z,0
2023-03-13T05:41:33.366Z,0
2023-03-13T05:42:33.351Z,0
2023-03-13T05:43:33.353Z,0
2023-03-13T05:44:33.353Z,0
2023-03-13T05:45:33.358Z,0
2023-03-13T05:46:33.460Z,0
2023-03-13T05:47:33.383Z,0
2023-03-13T05:48:33.354Z,0
2023-03-13T05:49:33.358Z,0
2023-03-13T05:50:33.441Z,0
2023-03-13T05:51:33.348Z,0
2023-03-13T05:52:33.375Z,0
2023-03-13T05:53:33.368Z,0
2023-03-13T05:54:33.376Z,0
2023-03-13T05:55:33.375Z,0
2023-03-13T05:56:33.364Z,0
2023-03-13T05:57:33.384Z,0
2023-03-13T05:58:33.354Z,0
2023-03-13T05:59:33.371Z,0
2023-03-13T06:00:33.380Z,0
2023-03-13T06:01:33.390Z,0
2023-03-13T06:02:33.393Z,0
2023-03-13T06:03:33.477Z,0
2023-03-13T06:04:33.498Z,0
2023-03-13T06:05:33.393Z,0
2023-03-13T06:06:33.401Z,0
2023-03-13T06:07:33.373Z,0
2023-03-13T06:08:33.388Z,0
2023-03-13T06:09:33.368Z,0
2023-03-13T06:10:33.370Z,0
2023-03-13T06:11:33.401Z,0
2023-03-13T06:12:33.387Z,0
2023-03-13T06:13:33.381Z,0
2023-03-13T06:14:33.389Z,0
2023-03-13T06:15:33.394Z,0
2023-03-13T06:16:33.494Z,0
2023-03-13T06:17:33.381Z,5.7
2023-03-13T06:18:33.387Z,5.300000000000001
2023-03-13T06:19:33.378Z,6.300000000000001
2023-03-13T06:20:33.397Z,5
2023-03-13T06:21:33.383Z,1.6
2023-03-13T06:22:33.417Z,0
2023-03-13T06:23:33.400Z,0
2023-03-13T06:24:33.415Z,0
2023-03-13T06:25:33.396Z,0
2023-03-13T06:26:33.412Z,0
2023-03-13T06:27:33.408Z,0
2023-03-13T06:28:33.391Z,0
2023-03-13T06:29:33.400Z,0
2023-03-13T06:30:33.406Z,0
2023-03-13T06:31:33.492Z,0
2023-03-13T06:32:33.524Z,0
2023-03-13T06:33:33.403Z,0
2023-03-13T06:34:33.416Z,0
2023-03-13T06:35:37.122Z,0
2023-03-13T06:36:33.567Z,0
2023-03-13T06:37:33.415Z,0
2023-03-13T06:38:33.437Z,0
2023-03-13T06:39:33.409Z,0
2023-03-13T06:40:33.427Z,0
2023-03-13T06:41:33.478Z,0
2023-03-13T06:42:33.421Z,0
2023-03-13T06:43:33.437Z,0
2023-03-13T06:44:33.441Z,0
2023-03-13T06:45:33.425Z,0
2023-03-13T06:46:33.616Z,0
2023-03-13T06:47:33.427Z,0
2023-03-13T06:48:33.423Z,0
2023-03-13T06:49:33.437Z,0
2023-03-13T06:50:33.441Z,0
2023-03-13T06:51:33.427Z,0
2023-03-13T06:52:42.994Z,0
2023-03-13T06:53:33.451Z,0
2023-03-13T06:54:33.465Z,0
2023-03-13T06:55:33.434Z,0
2023-03-13T06:56:33.432Z,0
2023-03-13T06:57:33.433Z,4.6000000000000005
2023-03-13T06:58:33.446Z,3
2023-03-13T06:59:33.447Z,4.1000000000000005
2023-03-13T07:00:33.450Z,5.300000000000001
2023-03-13T07:01:33.444Z,6.1000000000000005
2023-03-13T07:02:33.455Z,6.7
2023-03-13T07:03:33.508Z,1.3
2023-03-13T07:04:33.457Z,5.1000000000000005
2023-03-13T07:05:33.445Z,0
2023-03-13T07:06:33.520Z,0
2023-03-13T07:07:33.473Z,0
2023-03-13T07:08:33.481Z,0
2023-03-13T07:09:33.466Z,3.5
2023-03-13T07:10:33.496Z,4.9
2023-03-13T07:11:33.467Z,3.7
2023-03-13T07:12:33.473Z,0
2023-03-13T07:13:33.475Z,0
2023-03-13T07:14:33.470Z,0
2023-03-13T07:15:33.475Z,0
2023-03-13T07:16:33.558Z,0
2023-03-13T07:17:33.560Z,0
2023-03-13T07:18:33.481Z,0
2023-03-13T07:19:33.492Z,0
2023-03-13T07:20:33.560Z,0
2023-03-13T07:21:33.499Z,0
2023-03-13T07:22:33.472Z,0
2023-03-13T07:23:33.487Z,0
2023-03-13T07:24:33.523Z,0
2023-03-13T07:25:33.499Z,0
2023-03-13T07:26:33.562Z,0
2023-03-13T07:27:33.496Z,0
2023-03-13T07:28:35.051Z,0
2023-03-13T07:29:33.488Z,4.4
2023-03-13T07:30:33.490Z,5.4
2023-03-13T07:31:33.577Z,0
2023-03-13T07:32:33.482Z,2
2023-03-13T07:33:33.505Z,0
2023-03-13T07:34:33.521Z,4.3
2023-03-13T07:35:33.502Z,4.800000000000001
2023-03-13T07:36:33.536Z,5.6000000000000005
2023-03-13T07:37:33.486Z,4.1000000000000005
2023-03-13T07:38:33.500Z,6.300000000000001
2023-03-13T07:39:33.494Z,3.7
2023-03-13T07:40:33.494Z,1.8
2023-03-13T07:41:33.504Z,2.6
2023-03-13T07:42:33.522Z,2.3000000000000003
2023-03-13T07:43:33.496Z,4
2023-03-13T07:44:33.499Z,2.4000000000000004
2023-03-13T07:45:33.540Z,4.3
2023-03-13T07:46:33.502Z,5.4
2023-03-13T07:47:33.510Z,0
2023-03-13T07:48:33.520Z,2.1
2023-03-13T07:49:33.516Z,0
2023-03-13T07:50:33.590Z,0
2023-03-13T07:51:43.212Z,0
2023-03-13T07:52:33.521Z,0
2023-03-13T07:53:33.563Z,0
2023-03-13T07:54:33.551Z,0
2023-03-13T07:55:33.506Z,0
2023-03-13T07:56:33.514Z,0
2023-03-13T07:57:33.522Z,0
2023-03-13T07:58:33.625Z,0
2023-03-13T07:59:33.562Z,0
2023-03-13T08:00:33.515Z,0
2023-03-13T08:01:33.512Z,0
2023-03-13T08:02:33.600Z,0
2023-03-13T08:03:33.556Z,0
2023-03-13T08:04:33.529Z,0
2023-03-13T08:05:33.539Z,0
2023-03-13T08:06:34.321Z,0
2023-03-13T08:07:33.528Z,0
2023-03-13T08:08:33.536Z,0
2023-03-13T08:09:33.527Z,0
2023-03-13T08:10:33.523Z,0
2023-03-13T08:11:33.516Z,0
2023-03-13T08:12:33.538Z,0
2023-03-13T08:13:33.530Z,0
2023-03-13T08:14:33.548Z,3.8000000000000003
2023-03-13T08:15:33.556Z,0
2023-03-13T08:16:33.588Z,0
2023-03-13T08:17:33.517Z,0
2023-03-13T08:18:33.547Z,0
2023-03-13T08:19:33.526Z,6.2
2023-03-13T08:20:33.533Z,2.8000000000000003
2023-03-13T08:21:33.522Z,0
2023-03-13T08:22:33.508Z,0
2023-03-13T08:23:33.533Z,0
2023-03-13T08:24:33.522Z,0
2023-03-13T08:25:33.562Z,0
2023-03-13T08:26:33.549Z,0
2023-03-13T08:27:33.525Z,0
2023-03-13T08:28:33.537Z,0
2023-03-13T08:29:33.551Z,0
2023-03-13T08:30:33.611Z,0
2023-03-13T08:31:33.538Z,0
2023-03-13T08:32:33.578Z,0
2023-03-13T08:33:33.525Z,5
2023-03-13T08:34:33.523Z,4.3
2023-03-13T08:35:33.669Z,1.5
2023-03-13T08:36:33.541Z,0
2023-03-13T08:37:33.522Z,0
2023-03-13T08:38:33.538Z,0
2023-03-13T08:39:33.540Z,0
2023-03-13T08:40:33.541Z,0
2023-03-13T08:41:33.536Z,0
2023-03-13T08:42:33.535Z,0
2023-03-13T08:43:33.552Z,0
2023-03-13T08:44:33.548Z,7.9
2023-03-13T08:45:33.559Z,3.6
2023-03-13T08:46:33.615Z,0
2023-03-13T08:47:33.539Z,0
2023-03-13T08:48:33.553Z,3.4000000000000004
2023-03-13T08:49:33.545Z,0
2023-03-13T08:50:33.557Z,7
2023-03-13T08:51:33.549Z,8.4
2023-03-13T08:52:33.542Z,3.4000000000000004
2023-03-13T08:53:33.554Z,5
2023-03-13T08:54:33.553Z,8.200000000000001
2023-03-13T08:55:33.553Z,1.1
2023-03-13T08:56:33.571Z,0
2023-03-13T08:57:33.562Z,0
2023-03-13T08:58:33.552Z,0
2023-03-13T08:59:33.549Z,2.8000000000000003
2023-03-13T09:00:33.566Z,4.6000000000000005
2023-03-13T09:01:33.558Z,5.2
2023-03-13T09:02:33.700Z,0
2023-03-13T09:03:33.628Z,0
2023-03-13T09:04:33.557Z,0
2023-03-13T09:05:38.593Z,5.5
2023-03-13T09:06:33.562Z,4.7
2023-03-13T09:07:33.569Z,2.3000000000000003
2023-03-13T09:08:33.572Z,4.2
2023-03-13T09:09:33.570Z,3
2023-03-13T09:10:33.559Z,2.8000000000000003
2023-03-13T09:11:33.557Z,0
2023-03-13T09:12:33.565Z,0
2023-03-13T09:13:33.554Z,0
2023-03-13T09:14:35.785Z,0
2023-03-13T09:15:33.583Z,4.6000000000000005
2023-03-13T09:16:33.586Z,0
2023-03-13T09:17:33.566Z,0
2023-03-13T09:18:33.678Z,0
2023-03-13T09:19:33.572Z,0
2023-03-13T09:20:33.577Z,0
2023-03-13T09:21:33.582Z,0
2023-03-13T09:22:33.597Z,0
2023-03-13T09:23:33.588Z,0
2023-03-13T09:24:33.567Z,0
2023-03-13T09:25:33.557Z,0
2023-03-13T09:26:33.586Z,0
2023-03-13T09:27:33.575Z,0
2023-03-13T09:28:33.572Z,0
2023-03-13T09:29:33.574Z,0
2023-03-13T09:30:33.569Z,0
2023-03-13T09:31:33.643Z,0
2023-03-13T09:32:33.654Z,0
2023-03-13T09:33:33.572Z,0
2023-03-13T09:34:33.600Z,7.800000000000001
2023-03-13T09:35:33.575Z,7.7
2023-03-13T09:36:33.573Z,9.4
2023-03-13T09:37:33.565Z,5.800000000000001
2023-03-13T09:38:33.579Z,5.1000000000000005
2023-03-13T09:39:33.583Z,1
2023-03-13T09:40:33.583Z,3.7
2023-03-13T09:41:33.598Z,9.600000000000001
2023-03-13T09:42:33.588Z,9.4
2023-03-13T09:43:33.592Z,6.5
2023-03-13T09:44:33.572Z,3.2
2023-03-13T09:45:33.562Z,0
2023-03-13T09:46:33.609Z,0
2023-03-13T09:47:33.571Z,1.8
2023-03-13T09:48:33.587Z,4.5
2023-03-13T09:49:33.570Z,4.6000000000000005
2023-03-13T09:50:33.611Z,4
2023-03-13T09:51:33.579Z,3.7
2023-03-13T09:52:33.577Z,1.5
2023-03-13T09:53:33.579Z,6.4
2023-03-13T09:54:33.570Z,0.30000000000000004
2023-03-13T09:55:33.583Z,5.7
2023-03-13T09:56:33.575Z,4.6000000000000005
2023-03-13T09:57:33.593Z,3
2023-03-13T09:58:33.583Z,0
2023-03-13T09:59:33.580Z,0
2023-03-13T10:00:33.572Z,0
2023-03-13T10:01:33.600Z,0
2023-03-13T10:02:33.580Z,0
2023-03-13T10:03:33.580Z,3.1
2023-03-13T10:04:33.649Z,3.8000000000000003
2023-03-13T10:05:33.627Z,5.1000000000000005
2023-03-13T10:06:33.627Z,1.4000000000000001
2023-03-13T10:07:33.588Z,5
2023-03-13T10:08:33.594Z,3.8000000000000003
2023-03-13T10:09:33.605Z,2.5
2023-03-13T10:10:33.633Z,6
2023-03-13T10:11:33.596Z,7.6000000000000005
2023-03-13T10:12:33.602Z,6.5
2023-03-13T10:13:33.594Z,4.4
2023-03-13T10:14:33.595Z,5.9
2023-03-13T10:15:33.601Z,4.9
2023-03-13T10:16:33.665Z,0
2023-03-13T10:17:33.617Z,0
2023-03-13T10:18:33.595Z,0
2023-03-13T10:19:33.605Z,0
2023-03-13T10:20:33.582Z,4.2
2023-03-13T10:21:33.597Z,0
2023-03-13T10:22:33.627Z,6.7
2023-03-13T10:23:33.619Z,3
2023-03-13T10:24:33.610Z,1.6
2023-03-13T10:25:33.592Z,2.5
2023-03-13T10:26:33.598Z,0
2023-03-13T10:27:33.613Z,0
2023-03-13T10:28:33.593Z,0
2023-03-13T10:29:33.595Z,0
2023-03-13T10:30:33.599Z,0
2023-03-13T10:31:33.659Z,4.800000000000001
2023-03-13T10:32:33.663Z,0.9
2023-03-13T10:33:33.607Z,0.9
2023-03-13T10:34:33.609Z,0
2023-03-13T10:35:33.740Z,0
2023-03-13T10:36:33.603Z,0
2023-03-13T10:37:33.601Z,3.2
2023-03-13T10:38:33.634Z,6.300000000000001
2023-03-13T10:39:33.606Z,5.7
2023-03-13T10:40:33.620Z,4
2023-03-13T10:41:33.605Z,4.3
2023-03-13T10:42:33.597Z,5
2023-03-13T10:43:33.611Z,0.9
2023-03-13T10:44:33.634Z,10.9
2023-03-13T10:45:33.593Z,10.5
2023-03-13T10:46:33.617Z,5.9
2023-03-13T10:47:33.609Z,3.2
2023-03-13T10:48:33.606Z,4.800000000000001
2023-03-13T10:49:33.609Z,0
2023-03-13T10:50:33.606Z,0
2023-03-13T10:51:33.620Z,1.9000000000000001
2023-03-13T10:52:33.609Z,3.3000000000000003
2023-03-13T10:53:33.633Z,3.7
2023-03-13T10:54:33.649Z,2.1
2023-03-13T10:55:33.616Z,0
2023-03-13T10:56:33.624Z,0
2023-03-13T10:57:33.611Z,0
2023-03-13T10:58:33.615Z,0
2023-03-13T10:59:33.614Z,0
2023-03-13T11:00:33.606Z,0
2023-03-13T11:01:33.617Z,0
2023-03-13T11:02:33.705Z,0
2023-03-13T11:03:33.859Z,0
2023-03-13T11:04:33.628Z,3.3000000000000003
2023-03-13T11:05:33.614Z,3.3000000000000003
2023-03-13T11:06:33.621Z,0
2023-03-13T11:07:33.603Z,0
2023-03-13T11:08:33.675Z,0
2023-03-13T11:09:33.610Z,0
2023-03-13T11:10:33.738Z,0
2023-03-13T11:11:33.614Z,0
2023-03-13T11:12:33.643Z,0
2023-03-13T11:13:37.174Z,0
2023-03-13T11:14:33.626Z,0
2023-03-13T11:15:33.611Z,0
2023-03-13T11:16:33.725Z,0
2023-03-13T11:17:33.610Z,0
2023-03-13T11:18:33.627Z,0
2023-03-13T11:19:33.648Z,5.1000000000000005
2023-03-13T11:20:33.609Z,3
2023-03-13T11:21:33.635Z,3.7
2023-03-13T11:22:33.638Z,1.5
2023-03-13T11:23:33.633Z,3.2
2023-03-13T11:24:33.646Z,4.1000000000000005
2023-03-13T11:25:33.632Z,9.200000000000001
2023-03-13T11:26:33.660Z,6.300000000000001
2023-03-13T11:27:33.677Z,1.3
2023-03-13T11:28:33.638Z,8.5
2023-03-13T11:29:33.717Z,5.800000000000001
2023-03-13T11:30:33.624Z,5.800000000000001
2023-03-13T11:31:33.682Z,6.5
2023-03-13T11:32:33.674Z,3.7
2023-03-13T11:33:33.642Z,3
2023-03-13T11:34:33.623Z,1.7000000000000002
2023-03-13T11:35:33.680Z,1.4000000000000001
2023-03-13T11:36:33.643Z,0
2023-03-13T11:37:33.632Z,0
2023-03-13T11:38:33.641Z,5.300000000000001
2023-03-13T11:39:33.652Z,0
2023-03-13T11:40:33.637Z,2.5
2023-03-13T11:41:33.685Z,5.5
2023-03-13T11:42:33.746Z,1.2000000000000002
2023-03-13T11:43:33.631Z,0
2023-03-13T11:44:33.652Z,5.4
2023-03-13T11:45:33.693Z,3.3000000000000003
2023-03-13T11:46:33.789Z,2.3000000000000003
2023-03-13T11:47:33.638Z,3.7
2023-03-13T11:48:33.633Z,0
2023-03-13T11:49:33.648Z,2.8000000000000003
2023-03-13T11:50:33.639Z,4.5
2023-03-13T11:51:33.716Z,1.6
2023-03-13T11:52:33.647Z,0
2023-03-13T11:53:33.635Z,1.6
2023-03-13T11:54:33.639Z,0
2023-03-13T11:55:33.639Z,0
2023-03-13T11:56:33.635Z,0
2023-03-13T11:57:33.635Z,0
2023-03-13T11:58:33.659Z,0
2023-03-13T11:59:33.623Z,0
2023-03-13T12:00:33.660Z,4
2023-03-13T12:01:33.641Z,2.1
2023-03-13T12:02:33.827Z,3.8000000000000003
2023-03-13T12:03:33.684Z,0.6000000000000001
2023-03-13T12:04:33.656Z,2.1
2023-03-13T12:05:33.747Z,2.7
2023-03-13T12:06:33.665Z,0
2023-03-13T12:07:33.654Z,0
2023-03-13T12:08:33.642Z,0
2023-03-13T12:09:33.654Z,0
2023-03-13T12:10:33.638Z,0
2023-03-13T12:11:33.642Z,0
2023-03-13T12:12:33.654Z,0
2023-03-13T12:13:33.662Z,0
2023-03-13T12:14:33.675Z,0
2023-03-13T12:15:33.676Z,6.300000000000001
2023-03-13T12:16:33.729Z,3.6
2023-03-13T12:17:33.716Z,0
2023-03-13T12:18:33.656Z,0
2023-03-13T12:19:33.654Z,3.2
2023-03-13T12:20:33.651Z,0
2023-03-13T12:21:33.691Z,0
2023-03-13T12:22:33.650Z,0
2023-03-13T12:23:33.683Z,0
2023-03-13T12:24:33.650Z,0
2023-03-13T12:25:33.857Z,0
2023-03-13T12:26:33.632Z,0
2023-03-13T12:27:33.682Z,0
2023-03-13T12:28:33.723Z,0
2023-03-13T12:29:33.648Z,0
2023-03-13T12:30:33.747Z,0
2023-03-13T12:31:33.653Z,0
2023-03-13T12:32:33.729Z,0
2023-03-13T12:33:33.662Z,7
2023-03-13T12:34:33.673Z,9.600000000000001
2023-03-13T12:35:33.668Z,9.1
2023-03-13T12:36:33.668Z,7.7
2023-03-13T12:37:33.675Z,8.3
2023-03-13T12:38:33.658Z,9.1
2023-03-13T12:39:33.680Z,4
2023-03-13T12:40:33.695Z,3.3000000000000003
2023-03-13T12:41:33.687Z,5.9
2023-03-13T12:42:33.670Z,0
2023-03-13T12:43:33.672Z,0
2023-03-13T12:44:33.673Z,3
2023-03-13T12:45:33.715Z,0
2023-03-13T12:46:33.722Z,1.3
2023-03-13T12:47:33.685Z,0
2023-03-13T12:48:33.711Z,0
2023-03-13T12:49:33.665Z,4.5
2023-03-13T12:50:33.678Z,1.5
2023-03-13T12:51:33.708Z,2.6
2023-03-13T12:52:33.692Z,0
2023-03-13T12:53:33.738Z,0
2023-03-13T12:54:33.668Z,0
2023-03-13T12:55:33.693Z,1.8
2023-03-13T12:56:33.721Z,1.2000000000000002
2023-03-13T12:57:33.742Z,0
2023-03-13T12:58:33.676Z,3.4000000000000004
2023-03-13T12:59:33.687Z,2.1
2023-03-13T13:00:33.702Z,5.300000000000001
2023-03-13T13:01:33.779Z,2.4000000000000004
2023-03-13T13:02:33.706Z,0
2023-03-13T13:03:33.747Z,0
2023-03-13T13:04:33.774Z,0
2023-03-13T13:05:33.698Z,0
2023-03-13T13:06:33.707Z,0
2023-03-13T13:07:33.701Z,0
2023-03-13T13:08:33.735Z,5.1000000000000005
2023-03-13T13:09:33.716Z,0.9
2023-03-13T13:10:33.695Z,0
2023-03-13T13:11:33.750Z,0
2023-03-13T13:12:33.690Z,4.5
2023-03-13T13:13:33.692Z,0.9
2023-03-13T13:14:33.697Z,0
2023-03-13T13:15:33.795Z,5.5
2023-03-13T13:16:33.703Z,2.3000000000000003
2023-03-13T13:17:33.721Z,3.4000000000000004
2023-03-13T13:18:33.734Z,0
2023-03-13T13:19:33.720Z,0
2023-03-13T13:20:33.707Z,0
2023-03-13T13:21:33.710Z,2
2023-03-13T13:22:33.748Z,3.9000000000000004
2023-03-13T13:23:33.878Z,0
2023-03-13T13:24:33.716Z,5.7
2023-03-13T13:25:33.747Z,4.9
2023-03-13T13:26:33.800Z,5.9
2023-03-13T13:27:33.715Z,2.4000000000000004
2023-03-13T13:28:33.705Z,3.5
2023-03-13T13:29:33.747Z,1.4000000000000001
2023-03-13T13:30:33.784Z,0
2023-03-13T13:31:33.766Z,0
2023-03-13T13:32:33.770Z,2.1
2023-03-13T13:33:33.729Z,3.2
2023-03-13T13:34:33.735Z,3.8000000000000003
2023-03-13T13:35:33.757Z,4.1000000000000005
2023-03-13T13:36:33.733Z,3.6
2023-03-13T13:37:33.716Z,0
2023-03-13T13:38:33.730Z,0
2023-03-13T13:39:33.796Z,4.7
2023-03-13T13:40:33.740Z,1.8